sensor_id;sensor_type;location;lat;lon;timestamp;P1;durP1;ratioP1;P2;durP2;ratioP2
912;SDS011;443;51.448;7.028;2023-04-03T00:01:08;7.13;;;3.80;;
912;SDS011;443;51.448;7.028;2023-04-03T00:03:36;6.20;;;3.83;;
912;SDS011;443;51.448;7.028;2023-04-03T00:06:03;3.67;;;3.37;;
912;SDS011;443;51.448;7.028;2023-04-03T00:08:33;9.43;;;3.23;;
912;SDS011;443;51.448;7.028;2023-04-03T00:11:00;4.83;;;3.27;;
912;SDS011;443;51.448;7.028;2023-04-03T00:13:27;4.57;;;3.57;;
912;SDS011;443;51.448;7.028;2023-04-03T00:15:54;3.90;;;2.70;;
912;SDS011;443;51.448;7.028;2023-04-03T00:18:21;5.70;;;4.17;;
912;SDS011;443;51.448;7.028;2023-04-03T00:20:48;6.50;;;3.80;;
912;SDS011;443;51.448;7.028;2023-04-03T00:23:15;3.33;;;3.03;;
912;SDS011;443;51.448;7.028;2023-04-03T00:25:44;5.23;;;3.03;;
912;SDS011;443;51.448;7.028;2023-04-03T00:28:11;4.10;;;3.70;;
912;SDS011;443;51.448;7.028;2023-04-03T00:30:37;3.70;;;2.83;;
912;SDS011;443;51.448;7.028;2023-04-03T00:33:05;4.50;;;3.93;;
912;SDS011;443;51.448;7.028;2023-04-03T00:35:31;3.77;;;3.23;;
912;SDS011;443;51.448;7.028;2023-04-03T00:38:00;4.50;;;3.20;;
912;SDS011;443;51.448;7.028;2023-04-03T00:40:27;5.17;;;3.63;;
912;SDS011;443;51.448;7.028;2023-04-03T00:43:00;4.50;;;3.07;;
912;SDS011;443;51.448;7.028;2023-04-03T00:45:29;3.50;;;3.20;;
912;SDS011;443;51.448;7.028;2023-04-03T00:47:58;4.50;;;3.50;;
912;SDS011;443;51.448;7.028;2023-04-03T00:50:27;4.43;;;3.67;;
912;SDS011;443;51.448;7.028;2023-04-03T00:52:54;4.37;;;3.97;;
912;SDS011;443;51.448;7.028;2023-04-03T00:55:22;5.33;;;4.20;;
912;SDS011;443;51.448;7.028;2023-04-03T00:57:49;3.77;;;3.47;;
912;SDS011;443;51.448;7.028;2023-04-03T01:00:19;5.73;;;3.60;;
912;SDS011;443;51.448;7.028;2023-04-03T01:02:47;3.83;;;3.40;;
912;SDS011;443;51.448;7.028;2023-04-03T01:05:14;4.80;;;3.90;;
912;SDS011;443;51.448;7.028;2023-04-03T01:07:42;4.20;;;3.20;;
912;SDS011;443;51.448;7.028;2023-04-03T01:10:11;4.97;;;4.03;;
912;SDS011;443;51.448;7.028;2023-04-03T01:12:40;5.47;;;3.70;;
912;SDS011;443;51.448;7.028;2023-04-03T01:15:10;6.70;;;4.00;;
912;SDS011;443;51.448;7.028;2023-04-03T01:17:40;5.37;;;3.47;;
912;SDS011;443;51.448;7.028;2023-04-03T01:20:15;5.63;;;3.63;;
912;SDS011;443;51.448;7.028;2023-04-03T01:22:57;5.77;;;4.00;;
912;SDS011;443;51.448;7.028;2023-04-03T01:25:32;5.00;;;3.67;;
912;SDS011;443;51.448;7.028;2023-04-03T01:28:01;5.33;;;3.80;;
912;SDS011;443;51.448;7.028;2023-04-03T01:30:30;5.83;;;3.83;;
912;SDS011;443;51.448;7.028;2023-04-03T01:33:01;4.47;;;3.90;;
912;SDS011;443;51.448;7.028;2023-04-03T01:35:28;6.33;;;4.67;;
912;SDS011;443;51.448;7.028;2023-04-03T01:37:55;5.70;;;3.80;;
912;SDS011;443;51.448;7.028;2023-04-03T01:40:22;3.93;;;3.50;;
912;SDS011;443;51.448;7.028;2023-04-03T01:42:49;5.47;;;3.80;;
912;SDS011;443;51.448;7.028;2023-04-03T01:45:15;7.40;;;4.93;;
912;SDS011;443;51.448;7.028;2023-04-03T01:47:42;5.97;;;3.97;;
912;SDS011;443;51.448;7.028;2023-04-03T01:50:10;5.40;;;3.80;;
912;SDS011;443;51.448;7.028;2023-04-03T01:52:37;8.90;;;5.73;;
912;SDS011;443;51.448;7.028;2023-04-03T01:55:04;5.87;;;4.43;;
912;SDS011;443;51.448;7.028;2023-04-03T01:57:32;4.40;;;3.90;;
912;SDS011;443;51.448;7.028;2023-04-03T01:59:59;4.07;;;3.43;;
912;SDS011;443;51.448;7.028;2023-04-03T02:02:25;5.40;;;3.60;;
912;SDS011;443;51.448;7.028;2023-04-03T02:04:52;5.13;;;3.73;;
912;SDS011;443;51.448;7.028;2023-04-03T02:07:21;5.03;;;2.97;;
912;SDS011;443;51.448;7.028;2023-04-03T02:09:48;4.20;;;3.67;;
912;SDS011;443;51.448;7.028;2023-04-03T02:12:14;5.90;;;4.47;;
912;SDS011;443;51.448;7.028;2023-04-03T02:14:41;3.57;;;3.20;;
912;SDS011;443;51.448;7.028;2023-04-03T02:17:08;4.77;;;3.77;;
912;SDS011;443;51.448;7.028;2023-04-03T02:19:34;5.13;;;3.80;;
912;SDS011;443;51.448;7.028;2023-04-03T02:22:01;5.90;;;3.77;;
912;SDS011;443;51.448;7.028;2023-04-03T02:24:30;3.40;;;3.10;;
912;SDS011;443;51.448;7.028;2023-04-03T02:26:56;7.23;;;3.40;;
912;SDS011;443;51.448;7.028;2023-04-03T02:29:23;4.20;;;2.87;;
912;SDS011;443;51.448;7.028;2023-04-03T02:31:50;3.40;;;3.10;;
912;SDS011;443;51.448;7.028;2023-04-03T02:34:17;8.50;;;3.23;;
912;SDS011;443;51.448;7.028;2023-04-03T02:36:44;3.00;;;1.77;;
912;SDS011;443;51.448;7.028;2023-04-03T02:39:11;5.73;;;3.37;;
912;SDS011;443;51.448;7.028;2023-04-03T02:41:39;6.60;;;3.77;;
912;SDS011;443;51.448;7.028;2023-04-03T02:44:06;3.20;;;2.07;;
912;SDS011;443;51.448;7.028;2023-04-03T02:46:35;2.50;;;2.20;;
912;SDS011;443;51.448;7.028;2023-04-03T02:49:02;3.83;;;2.23;;
912;SDS011;443;51.448;7.028;2023-04-03T02:51:29;3.57;;;2.80;;
912;SDS011;443;51.448;7.028;2023-04-03T02:53:56;4.53;;;2.53;;
912;SDS011;443;51.448;7.028;2023-04-03T02:56:23;3.43;;;2.43;;
912;SDS011;443;51.448;7.028;2023-04-03T02:58:53;2.93;;;2.00;;
912;SDS011;443;51.448;7.028;2023-04-03T03:01:20;4.90;;;2.40;;
912;SDS011;443;51.448;7.028;2023-04-03T03:03:47;2.93;;;2.50;;
912;SDS011;443;51.448;7.028;2023-04-03T03:06:14;4.00;;;2.60;;
912;SDS011;443;51.448;7.028;2023-04-03T03:08:43;7.30;;;2.40;;
912;SDS011;443;51.448;7.028;2023-04-03T03:11:10;7.23;;;2.37;;
912;SDS011;443;51.448;7.028;2023-04-03T03:13:36;2.30;;;1.73;;
912;SDS011;443;51.448;7.028;2023-04-03T03:16:05;5.90;;;2.37;;
912;SDS011;443;51.448;7.028;2023-04-03T03:18:32;4.57;;;1.70;;
912;SDS011;443;51.448;7.028;2023-04-03T03:21:00;5.00;;;2.70;;
912;SDS011;443;51.448;7.028;2023-04-03T03:23:28;3.53;;;1.60;;
912;SDS011;443;51.448;7.028;2023-04-03T03:25:57;2.43;;;2.03;;
912;SDS011;443;51.448;7.028;2023-04-03T03:28:25;2.30;;;2.00;;
912;SDS011;443;51.448;7.028;2023-04-03T03:30:52;2.20;;;1.70;;
912;SDS011;443;51.448;7.028;2023-04-03T03:33:20;2.70;;;1.80;;
912;SDS011;443;51.448;7.028;2023-04-03T03:35:47;2.00;;;1.20;;
912;SDS011;443;51.448;7.028;2023-04-03T03:38:14;2.77;;;1.30;;
912;SDS011;443;51.448;7.028;2023-04-03T03:40:40;5.33;;;1.50;;
912;SDS011;443;51.448;7.028;2023-04-03T03:43:07;2.10;;;1.47;;
912;SDS011;443;51.448;7.028;2023-04-03T03:45:34;5.13;;;1.83;;
912;SDS011;443;51.448;7.028;2023-04-03T03:48:01;2.07;;;1.60;;
912;SDS011;443;51.448;7.028;2023-04-03T03:50:29;2.40;;;1.27;;
912;SDS011;443;51.448;7.028;2023-04-03T03:52:56;3.47;;;1.53;;
912;SDS011;443;51.448;7.028;2023-04-03T03:55:23;7.30;;;1.63;;
912;SDS011;443;51.448;7.028;2023-04-03T03:57:50;1.27;;;0.90;;
912;SDS011;443;51.448;7.028;2023-04-03T04:00:17;5.37;;;2.00;;
912;SDS011;443;51.448;7.028;2023-04-03T04:02:44;2.97;;;1.30;;
912;SDS011;443;51.448;7.028;2023-04-03T04:05:11;1.57;;;0.97;;
912;SDS011;443;51.448;7.028;2023-04-03T04:07:39;4.70;;;2.13;;
912;SDS011;443;51.448;7.028;2023-04-03T04:10:07;2.60;;;1.67;;
912;SDS011;443;51.448;7.028;2023-04-03T04:12:34;2.17;;;1.40;;
912;SDS011;443;51.448;7.028;2023-04-03T04:15:01;1.30;;;1.03;;
912;SDS011;443;51.448;7.028;2023-04-03T04:17:28;2.70;;;1.20;;
912;SDS011;443;51.448;7.028;2023-04-03T04:19:55;1.80;;;1.20;;
912;SDS011;443;51.448;7.028;2023-04-03T04:22:22;5.63;;;2.53;;
912;SDS011;443;51.448;7.028;2023-04-03T04:24:50;2.73;;;1.30;;
912;SDS011;443;51.448;7.028;2023-04-03T04:27:16;3.07;;;1.63;;
912;SDS011;443;51.448;7.028;2023-04-03T04:29:43;3.20;;;1.77;;
912;SDS011;443;51.448;7.028;2023-04-03T04:32:10;4.13;;;1.47;;
912;SDS011;443;51.448;7.028;2023-04-03T04:34:37;2.70;;;1.60;;
912;SDS011;443;51.448;7.028;2023-04-03T04:37:03;3.80;;;1.37;;
912;SDS011;443;51.448;7.028;2023-04-03T04:39:30;4.73;;;2.00;;
912;SDS011;443;51.448;7.028;2023-04-03T04:41:58;2.23;;;1.30;;
912;SDS011;443;51.448;7.028;2023-04-03T04:44:25;4.97;;;1.70;;
912;SDS011;443;51.448;7.028;2023-04-03T04:46:52;7.27;;;1.60;;
912;SDS011;443;51.448;7.028;2023-04-03T04:49:19;2.90;;;1.37;;
912;SDS011;443;51.448;7.028;2023-04-03T04:51:46;4.80;;;2.30;;
912;SDS011;443;51.448;7.028;2023-04-03T04:54:13;2.03;;;1.20;;
912;SDS011;443;51.448;7.028;2023-04-03T04:56:40;3.57;;;1.37;;
912;SDS011;443;51.448;7.028;2023-04-03T04:59:08;1.70;;;1.27;;
912;SDS011;443;51.448;7.028;2023-04-03T05:01:35;3.60;;;1.63;;
912;SDS011;443;51.448;7.028;2023-04-03T05:04:01;2.10;;;1.10;;
912;SDS011;443;51.448;7.028;2023-04-03T05:06:28;3.63;;;1.40;;
912;SDS011;443;51.448;7.028;2023-04-03T05:08:56;3.07;;;1.37;;
912;SDS011;443;51.448;7.028;2023-04-03T05:11:23;5.20;;;1.97;;
912;SDS011;443;51.448;7.028;2023-04-03T05:13:50;2.10;;;1.40;;
912;SDS011;443;51.448;7.028;2023-04-03T05:16:18;7.33;;;2.13;;
912;SDS011;443;51.448;7.028;2023-04-03T05:18:45;4.97;;;1.87;;
912;SDS011;443;51.448;7.028;2023-04-03T05:21:12;2.60;;;1.27;;
912;SDS011;443;51.448;7.028;2023-04-03T05:23:39;2.70;;;1.50;;
912;SDS011;443;51.448;7.028;2023-04-03T05:26:06;3.10;;;1.13;;
912;SDS011;443;51.448;7.028;2023-04-03T05:28:33;2.83;;;1.70;;
912;SDS011;443;51.448;7.028;2023-04-03T05:31:01;3.23;;;1.43;;
912;SDS011;443;51.448;7.028;2023-04-03T05:33:29;4.27;;;1.97;;
912;SDS011;443;51.448;7.028;2023-04-03T05:35:56;2.90;;;2.00;;
912;SDS011;443;51.448;7.028;2023-04-03T05:38:28;5.60;;;2.00;;
912;SDS011;443;51.448;7.028;2023-04-03T05:40:55;3.50;;;1.90;;
912;SDS011;443;51.448;7.028;2023-04-03T05:43:22;3.13;;;1.73;;
912;SDS011;443;51.448;7.028;2023-04-03T05:45:48;2.37;;;1.60;;
912;SDS011;443;51.448;7.028;2023-04-03T05:48:16;7.03;;;2.40;;
912;SDS011;443;51.448;7.028;2023-04-03T05:50:45;1.93;;;1.73;;
912;SDS011;443;51.448;7.028;2023-04-03T05:53:12;5.70;;;1.57;;
912;SDS011;443;51.448;7.028;2023-04-03T05:55:44;4.20;;;1.30;;
912;SDS011;443;51.448;7.028;2023-04-03T05:58:11;5.40;;;1.97;;
912;SDS011;443;51.448;7.028;2023-04-03T06:00:38;3.23;;;1.43;;
912;SDS011;443;51.448;7.028;2023-04-03T06:03:05;2.23;;;1.57;;
912;SDS011;443;51.448;7.028;2023-04-03T06:05:32;2.83;;;1.73;;
912;SDS011;443;51.448;7.028;2023-04-03T06:08:00;3.73;;;1.97;;
912;SDS011;443;51.448;7.028;2023-04-03T06:10:28;3.87;;;1.83;;
912;SDS011;443;51.448;7.028;2023-04-03T06:12:54;3.00;;;1.50;;
912;SDS011;443;51.448;7.028;2023-04-03T06:15:21;2.20;;;1.70;;
912;SDS011;443;51.448;7.028;2023-04-03T06:17:48;4.70;;;1.90;;
912;SDS011;443;51.448;7.028;2023-04-03T06:20:15;6.17;;;2.10;;
912;SDS011;443;51.448;7.028;2023-04-03T06:22:41;2.67;;;1.70;;
912;SDS011;443;51.448;7.028;2023-04-03T06:25:10;4.67;;;1.40;;
912;SDS011;443;51.448;7.028;2023-04-03T06:27:37;2.50;;;1.40;;
912;SDS011;443;51.448;7.028;2023-04-03T06:30:05;3.20;;;1.50;;
912;SDS011;443;51.448;7.028;2023-04-03T06:32:33;4.23;;;1.90;;
912;SDS011;443;51.448;7.028;2023-04-03T06:35:00;4.20;;;1.70;;
912;SDS011;443;51.448;7.028;2023-04-03T06:37:26;3.60;;;1.70;;
912;SDS011;443;51.448;7.028;2023-04-03T06:39:54;7.60;;;1.97;;
912;SDS011;443;51.448;7.028;2023-04-03T06:42:22;4.57;;;1.70;;
912;SDS011;443;51.448;7.028;2023-04-03T06:44:49;4.70;;;2.00;;
912;SDS011;443;51.448;7.028;2023-04-03T06:47:16;3.93;;;1.60;;
912;SDS011;443;51.448;7.028;2023-04-03T06:49:44;4.50;;;1.80;;
912;SDS011;443;51.448;7.028;2023-04-03T06:52:11;5.13;;;1.77;;
912;SDS011;443;51.448;7.028;2023-04-03T06:54:38;2.37;;;1.23;;
912;SDS011;443;51.448;7.028;2023-04-03T06:57:05;1.60;;;1.50;;
912;SDS011;443;51.448;7.028;2023-04-03T06:59:34;1.60;;;1.10;;
912;SDS011;443;51.448;7.028;2023-04-03T07:02:01;3.93;;;1.43;;
912;SDS011;443;51.448;7.028;2023-04-03T07:04:28;4.70;;;1.80;;
912;SDS011;443;51.448;7.028;2023-04-03T07:06:54;2.97;;;1.70;;
912;SDS011;443;51.448;7.028;2023-04-03T07:09:21;3.90;;;2.00;;
912;SDS011;443;51.448;7.028;2023-04-03T07:11:48;4.40;;;2.20;;
912;SDS011;443;51.448;7.028;2023-04-03T07:14:15;7.00;;;2.50;;
912;SDS011;443;51.448;7.028;2023-04-03T07:16:43;6.43;;;2.17;;
912;SDS011;443;51.448;7.028;2023-04-03T07:19:10;2.97;;;1.73;;
912;SDS011;443;51.448;7.028;2023-04-03T07:21:36;3.30;;;1.67;;
912;SDS011;443;51.448;7.028;2023-04-03T07:24:03;3.33;;;1.33;;
912;SDS011;443;51.448;7.028;2023-04-03T07:26:30;5.13;;;1.80;;
912;SDS011;443;51.448;7.028;2023-04-03T07:28:57;3.00;;;1.47;;
912;SDS011;443;51.448;7.028;2023-04-03T07:31:24;4.03;;;1.27;;
912;SDS011;443;51.448;7.028;2023-04-03T07:33:52;3.63;;;1.77;;
912;SDS011;443;51.448;7.028;2023-04-03T07:36:20;3.63;;;1.47;;
912;SDS011;443;51.448;7.028;2023-04-03T07:38:48;2.87;;;1.57;;
912;SDS011;443;51.448;7.028;2023-04-03T07:41:16;4.00;;;2.03;;
912;SDS011;443;51.448;7.028;2023-04-03T07:43:45;4.17;;;1.47;;
912;SDS011;443;51.448;7.028;2023-04-03T07:46:12;1.87;;;1.40;;
912;SDS011;443;51.448;7.028;2023-04-03T07:48:39;4.50;;;1.70;;
912;SDS011;443;51.448;7.028;2023-04-03T07:51:07;1.40;;;1.30;;
912;SDS011;443;51.448;7.028;2023-04-03T07:53:34;3.13;;;2.20;;
912;SDS011;443;51.448;7.028;2023-04-03T07:56:00;6.70;;;2.13;;
912;SDS011;443;51.448;7.028;2023-04-03T07:58:27;4.67;;;2.10;;
912;SDS011;443;51.448;7.028;2023-04-03T08:00:55;1.97;;;1.27;;
912;SDS011;443;51.448;7.028;2023-04-03T08:03:22;3.57;;;1.70;;
912;SDS011;443;51.448;7.028;2023-04-03T08:05:49;2.23;;;1.13;;
912;SDS011;443;51.448;7.028;2023-04-03T08:08:18;4.33;;;1.20;;
912;SDS011;443;51.448;7.028;2023-04-03T08:10:48;2.50;;;1.60;;
912;SDS011;443;51.448;7.028;2023-04-03T08:13:16;7.13;;;1.57;;
912;SDS011;443;51.448;7.028;2023-04-03T08:15:43;1.70;;;1.13;;
912;SDS011;443;51.448;7.028;2023-04-03T08:18:10;5.73;;;1.47;;
912;SDS011;443;51.448;7.028;2023-04-03T08:20:37;2.67;;;1.40;;
912;SDS011;443;51.448;7.028;2023-04-03T08:23:05;1.30;;;1.00;;
912;SDS011;443;51.448;7.028;2023-04-03T08:25:33;1.60;;;0.93;;
912;SDS011;443;51.448;7.028;2023-04-03T08:28:03;4.00;;;1.03;;
912;SDS011;443;51.448;7.028;2023-04-03T08:30:30;3.33;;;1.40;;
912;SDS011;443;51.448;7.028;2023-04-03T08:32:57;2.70;;;1.17;;
912;SDS011;443;51.448;7.028;2023-04-03T08:35:27;5.67;;;1.50;;
912;SDS011;443;51.448;7.028;2023-04-03T08:37:54;2.90;;;1.50;;
912;SDS011;443;51.448;7.028;2023-04-03T08:40:21;3.93;;;1.47;;
912;SDS011;443;51.448;7.028;2023-04-03T08:42:53;0.80;;;0.70;;
912;SDS011;443;51.448;7.028;2023-04-03T08:45:32;1.53;;;1.00;;
912;SDS011;443;51.448;7.028;2023-04-03T08:48:11;1.40;;;1.00;;
912;SDS011;443;51.448;7.028;2023-04-03T08:50:41;5.90;;;1.43;;
912;SDS011;443;51.448;7.028;2023-04-03T08:53:13;1.43;;;1.03;;
912;SDS011;443;51.448;7.028;2023-04-03T08:55:42;2.43;;;1.17;;
912;SDS011;443;51.448;7.028;2023-04-03T08:58:13;2.80;;;1.30;;
912;SDS011;443;51.448;7.028;2023-04-03T09:00:43;5.27;;;1.77;;
912;SDS011;443;51.448;7.028;2023-04-03T09:03:12;1.43;;;0.70;;
912;SDS011;443;51.448;7.028;2023-04-03T09:05:41;1.87;;;1.17;;
912;SDS011;443;51.448;7.028;2023-04-03T09:08:14;4.70;;;1.50;;
912;SDS011;443;51.448;7.028;2023-04-03T09:10:48;1.20;;;0.77;;
912;SDS011;443;51.448;7.028;2023-04-03T09:13:24;1.50;;;0.70;;
912;SDS011;443;51.448;7.028;2023-04-03T09:15:56;4.30;;;1.40;;
912;SDS011;443;51.448;7.028;2023-04-03T09:18:24;1.77;;;1.03;;
912;SDS011;443;51.448;7.028;2023-04-03T09:20:56;6.20;;;0.90;;
912;SDS011;443;51.448;7.028;2023-04-03T09:23:29;4.40;;;1.23;;
912;SDS011;443;51.448;7.028;2023-04-03T09:26:01;1.40;;;0.90;;
912;SDS011;443;51.448;7.028;2023-04-03T09:28:32;1.70;;;1.13;;
912;SDS011;443;51.448;7.028;2023-04-03T09:31:01;1.53;;;1.33;;
912;SDS011;443;51.448;7.028;2023-04-03T09:33:32;3.87;;;1.20;;
912;SDS011;443;51.448;7.028;2023-04-03T09:36:00;2.00;;;0.97;;
912;SDS011;443;51.448;7.028;2023-04-03T09:38:27;1.40;;;0.93;;
912;SDS011;443;51.448;7.028;2023-04-03T09:41:02;2.67;;;0.90;;
912;SDS011;443;51.448;7.028;2023-04-03T09:43:34;1.47;;;0.73;;
912;SDS011;443;51.448;7.028;2023-04-03T09:46:17;2.27;;;0.80;;
912;SDS011;443;51.448;7.028;2023-04-03T09:48:51;2.10;;;1.63;;
912;SDS011;443;51.448;7.028;2023-04-03T09:51:18;1.23;;;0.67;;
912;SDS011;443;51.448;7.028;2023-04-03T09:53:45;4.20;;;1.40;;
912;SDS011;443;51.448;7.028;2023-04-03T09:56:18;1.67;;;0.90;;
912;SDS011;443;51.448;7.028;2023-04-03T09:58:49;1.93;;;0.77;;
912;SDS011;443;51.448;7.028;2023-04-03T10:01:22;2.10;;;0.80;;
912;SDS011;443;51.448;7.028;2023-04-03T10:04:02;1.50;;;1.20;;
912;SDS011;443;51.448;7.028;2023-04-03T10:06:31;1.90;;;1.10;;
912;SDS011;443;51.448;7.028;2023-04-03T10:09:01;1.30;;;0.83;;
912;SDS011;443;51.448;7.028;2023-04-03T10:11:30;1.73;;;0.83;;
912;SDS011;443;51.448;7.028;2023-04-03T10:13:59;2.50;;;0.70;;
912;SDS011;443;51.448;7.028;2023-04-03T10:16:32;1.57;;;0.73;;
912;SDS011;443;51.448;7.028;2023-04-03T10:19:17;0.90;;;0.70;;
912;SDS011;443;51.448;7.028;2023-04-03T10:21:57;1.50;;;1.27;;
912;SDS011;443;51.448;7.028;2023-04-03T10:24:30;1.83;;;0.80;;
912;SDS011;443;51.448;7.028;2023-04-03T10:27:03;1.47;;;1.17;;
912;SDS011;443;51.448;7.028;2023-04-03T10:29:37;1.47;;;0.93;;
912;SDS011;443;51.448;7.028;2023-04-03T10:32:15;1.53;;;0.90;;
912;SDS011;443;51.448;7.028;2023-04-03T10:34:54;1.00;;;0.60;;
912;SDS011;443;51.448;7.028;2023-04-03T10:37:29;1.73;;;1.00;;
912;SDS011;443;51.448;7.028;2023-04-03T10:40:02;2.63;;;0.90;;
912;SDS011;443;51.448;7.028;2023-04-03T10:42:41;3.00;;;1.30;;
912;SDS011;443;51.448;7.028;2023-04-03T10:45:21;2.20;;;0.97;;
912;SDS011;443;51.448;7.028;2023-04-03T10:47:56;0.90;;;0.63;;
912;SDS011;443;51.448;7.028;2023-04-03T10:50:33;4.60;;;0.83;;
912;SDS011;443;51.448;7.028;2023-04-03T10:53:11;2.70;;;0.70;;
912;SDS011;443;51.448;7.028;2023-04-03T10:55:46;2.00;;;0.97;;
912;SDS011;443;51.448;7.028;2023-04-03T10:58:18;2.60;;;1.17;;
912;SDS011;443;51.448;7.028;2023-04-03T11:00:52;2.23;;;1.10;;
912;SDS011;443;51.448;7.028;2023-04-03T11:03:27;2.83;;;1.17;;
912;SDS011;443;51.448;7.028;2023-04-03T11:05:58;2.60;;;0.87;;
912;SDS011;443;51.448;7.028;2023-04-03T11:08:28;4.40;;;1.70;;
912;SDS011;443;51.448;7.028;2023-04-03T11:11:02;3.67;;;1.30;;
912;SDS011;443;51.448;7.028;2023-04-03T11:13:33;2.10;;;1.27;;
912;SDS011;443;51.448;7.028;2023-04-03T11:16:05;1.57;;;1.37;;
912;SDS011;443;51.448;7.028;2023-04-03T11:18:35;0.90;;;0.70;;
912;SDS011;443;51.448;7.028;2023-04-03T11:21:07;2.10;;;0.80;;
912;SDS011;443;51.448;7.028;2023-04-03T11:23:39;0.60;;;0.37;;
912;SDS011;443;51.448;7.028;2023-04-03T11:26:08;5.33;;;1.80;;
912;SDS011;443;51.448;7.028;2023-04-03T11:28:36;3.03;;;1.53;;
912;SDS011;443;51.448;7.028;2023-04-03T11:31:09;1.23;;;0.80;;
912;SDS011;443;51.448;7.028;2023-04-03T11:33:47;2.70;;;1.13;;
912;SDS011;443;51.448;7.028;2023-04-03T11:36:22;0.73;;;0.47;;
912;SDS011;443;51.448;7.028;2023-04-03T11:38:51;1.57;;;1.10;;
912;SDS011;443;51.448;7.028;2023-04-03T11:41:24;1.60;;;1.00;;
912;SDS011;443;51.448;7.028;2023-04-03T11:43:56;2.70;;;1.00;;
912;SDS011;443;51.448;7.028;2023-04-03T11:49:50;1.13;;;0.57;;
912;SDS011;443;51.448;7.028;2023-04-03T11:58:26;1.23;;;0.70;;
912;SDS011;443;51.448;7.028;2023-04-03T12:00:59;0.80;;;0.50;;
912;SDS011;443;51.448;7.028;2023-04-03T12:12:35;2.73;;;1.23;;
912;SDS011;443;51.448;7.028;2023-04-03T12:15:19;3.03;;;1.23;;
912;SDS011;443;51.448;7.028;2023-04-03T12:21:17;0.80;;;0.50;;
912;SDS011;443;51.448;7.028;2023-04-03T12:27:01;3.43;;;0.93;;
912;SDS011;443;51.448;7.028;2023-04-03T12:29:34;1.13;;;0.70;;
912;SDS011;443;51.448;7.028;2023-04-03T12:32:10;1.70;;;0.87;;
912;SDS011;443;51.448;7.028;2023-04-03T12:34:52;2.30;;;0.90;;
912;SDS011;443;51.448;7.028;2023-04-03T12:37:34;1.67;;;0.77;;
912;SDS011;443;51.448;7.028;2023-04-03T12:40:10;1.77;;;0.70;;
912;SDS011;443;51.448;7.028;2023-04-03T12:42:52;2.30;;;1.00;;
912;SDS011;443;51.448;7.028;2023-04-03T12:45:31;0.97;;;0.60;;
912;SDS011;443;51.448;7.028;2023-04-03T12:48:12;2.10;;;0.97;;
912;SDS011;443;51.448;7.028;2023-04-03T12:50:41;1.00;;;0.60;;
912;SDS011;443;51.448;7.028;2023-04-03T12:53:11;1.00;;;0.63;;
912;SDS011;443;51.448;7.028;2023-04-03T12:55:41;1.80;;;0.93;;
912;SDS011;443;51.448;7.028;2023-04-03T12:58:14;2.60;;;1.07;;
912;SDS011;443;51.448;7.028;2023-04-03T13:00:44;5.83;;;1.10;;
912;SDS011;443;51.448;7.028;2023-04-03T13:03:21;1.70;;;0.80;;
912;SDS011;443;51.448;7.028;2023-04-03T13:05:51;6.23;;;0.63;;
912;SDS011;443;51.448;7.028;2023-04-03T13:08:19;1.93;;;0.93;;
912;SDS011;443;51.448;7.028;2023-04-03T13:10:49;3.23;;;1.10;;
912;SDS011;443;51.448;7.028;2023-04-03T13:13:21;1.90;;;0.93;;
912;SDS011;443;51.448;7.028;2023-04-03T13:15:50;2.77;;;1.00;;
912;SDS011;443;51.448;7.028;2023-04-03T13:18:22;1.40;;;0.97;;
912;SDS011;443;51.448;7.028;2023-04-03T13:20:56;1.40;;;0.80;;
912;SDS011;443;51.448;7.028;2023-04-03T13:23:26;1.83;;;1.03;;
912;SDS011;443;51.448;7.028;2023-04-03T13:25:53;0.90;;;0.60;;
912;SDS011;443;51.448;7.028;2023-04-03T13:28:23;3.50;;;1.03;;
912;SDS011;443;51.448;7.028;2023-04-03T13:30:56;1.90;;;0.70;;
912;SDS011;443;51.448;7.028;2023-04-03T13:33:29;0.70;;;0.50;;
912;SDS011;443;51.448;7.028;2023-04-03T13:35:58;2.30;;;0.90;;
912;SDS011;443;51.448;7.028;2023-04-03T13:38:30;1.47;;;0.83;;
912;SDS011;443;51.448;7.028;2023-04-03T13:40:59;1.10;;;0.70;;
912;SDS011;443;51.448;7.028;2023-04-03T13:43:28;0.90;;;0.70;;
912;SDS011;443;51.448;7.028;2023-04-03T13:45:59;1.10;;;0.70;;
912;SDS011;443;51.448;7.028;2023-04-03T13:48:37;2.00;;;1.07;;
912;SDS011;443;51.448;7.028;2023-04-03T13:51:07;2.00;;;1.00;;
912;SDS011;443;51.448;7.028;2023-04-03T13:53:46;1.20;;;1.00;;
912;SDS011;443;51.448;7.028;2023-04-03T13:59:05;1.30;;;0.73;;
912;SDS011;443;51.448;7.028;2023-04-03T14:01:48;2.70;;;1.00;;
912;SDS011;443;51.448;7.028;2023-04-03T14:04:19;2.30;;;0.90;;
912;SDS011;443;51.448;7.028;2023-04-03T14:06:47;1.37;;;0.80;;
912;SDS011;443;51.448;7.028;2023-04-03T14:09:16;1.93;;;1.00;;
912;SDS011;443;51.448;7.028;2023-04-03T14:11:44;1.43;;;0.90;;
912;SDS011;443;51.448;7.028;2023-04-03T14:14:12;1.20;;;0.80;;
912;SDS011;443;51.448;7.028;2023-04-03T14:16:42;2.53;;;0.83;;
912;SDS011;443;51.448;7.028;2023-04-03T14:19:17;1.47;;;1.10;;
912;SDS011;443;51.448;7.028;2023-04-03T14:21:46;1.00;;;0.83;;
912;SDS011;443;51.448;7.028;2023-04-03T14:24:13;1.47;;;0.50;;
912;SDS011;443;51.448;7.028;2023-04-03T14:26:41;1.50;;;1.00;;
912;SDS011;443;51.448;7.028;2023-04-03T14:29:09;3.50;;;0.87;;
912;SDS011;443;51.448;7.028;2023-04-03T14:31:37;1.97;;;0.70;;
912;SDS011;443;51.448;7.028;2023-04-03T14:34:04;3.07;;;0.60;;
912;SDS011;443;51.448;7.028;2023-04-03T14:36:32;5.73;;;0.90;;
912;SDS011;443;51.448;7.028;2023-04-03T14:39:00;2.00;;;0.80;;
912;SDS011;443;51.448;7.028;2023-04-03T14:41:27;1.83;;;0.77;;
912;SDS011;443;51.448;7.028;2023-04-03T14:43:54;1.73;;;0.93;;
912;SDS011;443;51.448;7.028;2023-04-03T14:46:22;3.53;;;0.90;;
912;SDS011;443;51.448;7.028;2023-04-03T14:48:52;1.77;;;0.70;;
912;SDS011;443;51.448;7.028;2023-04-03T14:51:19;1.67;;;0.83;;
912;SDS011;443;51.448;7.028;2023-04-03T14:53:47;1.80;;;0.87;;
912;SDS011;443;51.448;7.028;2023-04-03T14:56:16;4.53;;;1.13;;
912;SDS011;443;51.448;7.028;2023-04-03T14:58:47;1.33;;;0.70;;
912;SDS011;443;51.448;7.028;2023-04-03T15:01:15;1.20;;;0.83;;
912;SDS011;443;51.448;7.028;2023-04-03T15:03:42;1.57;;;0.67;;
912;SDS011;443;51.448;7.028;2023-04-03T15:06:10;3.03;;;1.30;;
912;SDS011;443;51.448;7.028;2023-04-03T15:08:38;1.73;;;0.70;;
912;SDS011;443;51.448;7.028;2023-04-03T15:11:08;3.00;;;0.90;;
912;SDS011;443;51.448;7.028;2023-04-03T15:13:36;2.17;;;1.47;;
912;SDS011;443;51.448;7.028;2023-04-03T15:16:03;1.10;;;0.87;;
912;SDS011;443;51.448;7.028;2023-04-03T15:18:31;2.40;;;1.10;;
912;SDS011;443;51.448;7.028;2023-04-03T15:21:02;1.67;;;1.10;;
912;SDS011;443;51.448;7.028;2023-04-03T15:23:29;4.10;;;1.00;;
912;SDS011;443;51.448;7.028;2023-04-03T15:25:56;2.00;;;1.30;;
912;SDS011;443;51.448;7.028;2023-04-03T15:28:27;1.30;;;0.83;;
912;SDS011;443;51.448;7.028;2023-04-03T15:30:56;1.70;;;0.90;;
912;SDS011;443;51.448;7.028;2023-04-03T15:33:23;7.57;;;1.37;;
912;SDS011;443;51.448;7.028;2023-04-03T15:35:50;2.57;;;1.03;;
912;SDS011;443;51.448;7.028;2023-04-03T15:38:17;2.17;;;0.90;;
912;SDS011;443;51.448;7.028;2023-04-03T15:40:44;1.53;;;1.10;;
912;SDS011;443;51.448;7.028;2023-04-03T15:43:12;3.73;;;1.10;;
912;SDS011;443;51.448;7.028;2023-04-03T15:45:40;2.23;;;0.80;;
912;SDS011;443;51.448;7.028;2023-04-03T15:48:09;2.40;;;1.10;;
912;SDS011;443;51.448;7.028;2023-04-03T15:50:36;2.20;;;1.70;;
912;SDS011;443;51.448;7.028;2023-04-03T15:53:03;2.13;;;0.70;;
912;SDS011;443;51.448;7.028;2023-04-03T15:55:31;2.40;;;0.90;;
912;SDS011;443;51.448;7.028;2023-04-03T15:58:00;2.53;;;1.13;;
912;SDS011;443;51.448;7.028;2023-04-03T16:00:27;1.63;;;1.10;;
912;SDS011;443;51.448;7.028;2023-04-03T16:02:57;2.40;;;1.07;;
912;SDS011;443;51.448;7.028;2023-04-03T16:05:26;2.73;;;1.00;;
912;SDS011;443;51.448;7.028;2023-04-03T16:07:53;1.60;;;1.00;;
912;SDS011;443;51.448;7.028;2023-04-03T16:10:20;2.03;;;1.17;;
912;SDS011;443;51.448;7.028;2023-04-03T16:12:47;1.97;;;1.13;;
912;SDS011;443;51.448;7.028;2023-04-03T16:15:14;0.90;;;0.50;;
912;SDS011;443;51.448;7.028;2023-04-03T16:17:41;2.80;;;1.30;;
912;SDS011;443;51.448;7.028;2023-04-03T16:20:10;2.97;;;0.97;;
912;SDS011;443;51.448;7.028;2023-04-03T16:22:39;1.40;;;0.80;;
912;SDS011;443;51.448;7.028;2023-04-03T16:25:07;1.53;;;0.90;;